createdAt,value
2014-08-27T00:00:26.875Z,18.4
2014-08-27T00:01:31.581Z,18.43
2014-08-27T00:02:36.269Z,18.5
2014-08-27T00:03:40.960Z,18.41
2014-08-27T00:04:45.634Z,18.6
2014-08-27T00:05:50.323Z,18.58
2014-08-27T00:06:55.013Z,18.66
2014-08-27T00:07:59.686Z,18.48
2014-08-27T00:09:04.376Z,18.53
2014-08-27T00:10:09.347Z,18.57
2014-08-27T00:11:14.036Z,18.59
2014-08-27T00:12:19.023Z,18.51
2014-08-27T00:13:23.696Z,18.62
2014-08-27T00:14:28.684Z,18.5
2014-08-27T00:15:33.372Z,18.46
2014-08-27T00:16:38.046Z,18.61
2014-08-27T00:17:42.737Z,18.49
2014-08-27T00:18:47.411Z,18.38
2014-08-27T00:19:52.100Z,18.31
2014-08-27T00:20:56.790Z,18.32
2014-08-27T00:22:01.463Z,18.16
2014-08-27T00:23:06.153Z,18.34
2014-08-27T00:24:10.827Z,18.43
2014-08-27T00:25:15.516Z,18.5
2014-08-27T00:26:20.488Z,18.32
2014-08-27T00:27:25.177Z,18.22
2014-08-27T00:28:29.866Z,18.36
2014-08-27T00:29:34.541Z,18.32
2014-08-27T00:30:39.229Z,18.37
2014-08-27T00:31:43.919Z,18.28
2014-08-27T00:32:48.594Z,18.38
2014-08-27T00:33:53.282Z,18.3
2014-08-27T00:34:57.972Z,18.22
2014-08-27T00:36:02.647Z,18.08
2014-08-27T00:37:07.335Z,18.17
2014-08-27T00:38:12.323Z,18
2014-08-27T00:39:16.996Z,18.13
2014-08-27T00:40:21.983Z,18.04
2014-08-27T00:41:26.954Z,18.12
2014-08-27T00:42:31.941Z,18.06
2014-08-27T00:43:36.645Z,18.04
2014-08-27T00:44:41.320Z,18.06
2014-08-27T00:45:46.008Z,17.92
2014-08-27T00:46:50.699Z,17.94
2014-08-27T00:47:55.373Z,17.89
2014-08-27T00:49:00.358Z,18.04
2014-08-27T00:50:05.049Z,18.17
2014-08-27T00:51:09.723Z,18.02
2014-08-27T00:52:14.709Z,17.9
2014-08-27T00:53:19.398Z,17.82
2014-08-27T00:54:24.072Z,17.85
2014-08-27T00:55:28.762Z,17.88
2014-08-27T00:56:33.467Z,17.9
2014-08-27T00:57:38.438Z,17.88
2014-08-27T00:58:43.127Z,18.06
2014-08-27T00:59:47.817Z,18.02
2014-08-27T01:00:52.491Z,17.94
2014-08-27T01:01:57.181Z,18.06
2014-08-27T01:03:01.870Z,17.98
2014-08-27T01:04:06.559Z,18.05
2014-08-27T01:05:11.531Z,18.07
2014-08-27T01:06:16.516Z,18.12
2014-08-27T01:07:21.207Z,17.96
2014-08-27T01:08:26.193Z,18.04
2014-08-27T01:09:30.867Z,17.92
2014-08-27T01:10:35.556Z,17.84
2014-08-27T01:11:40.246Z,17.98
2014-08-27T01:12:44.920Z,17.96
2014-08-27T01:13:49.609Z,18
2014-08-27T01:14:54.300Z,18.02
2014-08-27T01:15:58.973Z,18.13
2014-08-27T01:17:03.662Z,18.08
2014-08-27T01:18:08.353Z,18
2014-08-27T01:19:13.338Z,18.09
2014-08-27T01:20:18.013Z,18.13
2014-08-27T01:21:22.702Z,18.31
2014-08-27T01:22:27.689Z,18.04
2014-08-27T01:23:32.675Z,18.01
2014-08-27T01:24:37.662Z,18.02
2014-08-27T01:25:42.335Z,18.08
2014-08-27T01:26:47.025Z,17.9
2014-08-27T01:27:51.714Z,18
2014-08-27T01:28:56.388Z,17.95
2014-08-27T01:30:01.079Z,17.94
2014-08-27T01:31:05.768Z,17.9
2014-08-27T01:32:10.441Z,17.94
2014-08-27T01:33:15.132Z,18.04
2014-08-27T01:34:19.821Z,17.93
2014-08-27T01:35:24.792Z,17.86
2014-08-27T01:36:29.481Z,17.75
2014-08-27T01:37:34.171Z,17.97
2014-08-27T01:38:39.157Z,17.96
2014-08-27T01:39:43.144Z,17.96
2014-08-27T01:40:47.833Z,17.98
2014-08-27T01:41:52.508Z,17.96
2014-08-27T01:42:57.197Z,18.02
2014-08-27T01:44:01.887Z,18.16
2014-08-27T01:45:07.169Z,18.12
2014-08-27T01:46:11.843Z,18.24
2014-08-27T01:47:16.909Z,18.16
2014-08-27T01:48:21.597Z,18.05
2014-08-27T01:49:26.288Z,18.01
2014-08-27T01:50:31.274Z,18.01
2014-08-27T01:51:35.948Z,18.19
2014-08-27T01:52:40.637Z,18.05
2014-08-27T01:53:45.327Z,18.14
2014-08-27T01:54:50.001Z,18.19
2014-08-27T01:55:54.690Z,18.28
2014-08-27T01:56:59.380Z,18.2
2014-08-27T01:58:03.382Z,18.19
2014-08-27T01:59:08.368Z,18.18
2014-08-27T02:00:13.043Z,18.04
2014-08-27T02:01:17.732Z,18.2
2014-08-27T02:02:22.719Z,18.16
2014-08-27T02:03:27.704Z,18.14
2014-08-27T02:04:32.378Z,18.08
2014-08-27T02:05:37.069Z,17.99
2014-08-27T02:06:42.055Z,18.15
2014-08-27T02:07:46.745Z,18.34
2014-08-27T02:08:51.715Z,18.33
2014-08-27T02:09:56.405Z,18.05
2014-08-27T02:11:01.391Z,17.98
2014-08-27T02:12:06.066Z,17.98
2014-08-27T02:13:10.755Z,18.16
2014-08-27T02:14:15.445Z,18.18
2014-08-27T02:15:20.119Z,18.21
2014-08-27T02:16:24.807Z,18.34
2014-08-27T02:17:29.498Z,18.2
2014-08-27T02:18:34.187Z,18.21
2014-08-27T02:19:38.876Z,18.09
2014-08-27T02:20:43.848Z,18.08
2014-08-27T02:21:48.536Z,18.02
2014-08-27T02:22:53.227Z,18
2014-08-27T02:23:57.916Z,18.1
2014-08-27T02:25:02.590Z,18.05
2014-08-27T02:26:07.280Z,18.02
2014-08-27T02:27:12.563Z,18.02
2014-08-27T02:28:17.252Z,18.16
2014-08-27T02:29:21.942Z,17.98
2014-08-27T02:30:26.616Z,17.89
2014-08-27T02:31:31.322Z,18
2014-08-27T02:32:36.605Z,18.03
2014-08-27T02:33:41.295Z,18
2014-08-27T02:34:45.967Z,17.98
2014-08-27T02:35:50.641Z,18.06
2014-08-27T02:36:55.332Z,18.18
2014-08-27T02:38:00.006Z,18.2
2014-08-27T02:39:04.695Z,18.08
2014-08-27T02:40:09.369Z,17.98
2014-08-27T02:41:14.059Z,17.97
2014-08-27T02:42:18.732Z,18.02
2014-08-27T02:43:23.719Z,18
2014-08-27T02:44:28.705Z,17.96
2014-08-27T02:45:33.380Z,17.93
2014-08-27T02:46:38.070Z,17.92
2014-08-27T02:47:42.742Z,17.91
2014-08-27T02:48:47.433Z,18.03
2014-08-27T02:49:52.107Z,17.92
2014-08-27T02:50:56.795Z,17.96
2014-08-27T02:52:01.469Z,18.02
2014-08-27T02:53:06.160Z,18.08
2014-08-27T02:54:10.834Z,18.06
2014-08-27T02:55:15.523Z,18.04
2014-08-27T02:56:20.197Z,18.12
2014-08-27T02:57:24.886Z,18.07
2014-08-27T02:58:29.560Z,18.06
2014-08-27T02:59:34.547Z,18.02
2014-08-27T03:00:39.533Z,17.99
2014-08-27T03:01:44.208Z,17.99
2014-08-27T03:02:48.897Z,18.05
2014-08-27T03:03:53.570Z,18.11
2014-08-27T03:04:58.261Z,17.96
2014-08-27T03:06:03.247Z,17.99
2014-08-27T03:07:07.921Z,18.14
2014-08-27T03:08:12.907Z,18.01
2014-08-27T03:09:17.581Z,17.96
2014-08-27T03:10:22.271Z,18.1
2014-08-27T03:11:26.960Z,17.92
2014-08-27T03:12:31.634Z,18.06
2014-08-27T03:13:36.325Z,18.1
2014-08-27T03:14:40.998Z,18.1
2014-08-27T03:15:45.687Z,17.88
2014-08-27T03:16:50.362Z,17.99
2014-08-27T03:17:55.067Z,17.96
2014-08-27T03:18:59.741Z,18.06
2014-08-27T03:20:04.726Z,17.99
2014-08-27T03:21:09.416Z,18.03
2014-08-27T03:22:14.388Z,18.13
2014-08-27T03:23:19.374Z,18.02
2014-08-27T03:24:24.345Z,17.97
2014-08-27T03:25:29.050Z,17.87
2014-08-27T03:26:33.739Z,18.04
2014-08-27T03:27:38.711Z,18
2014-08-27T03:28:43.385Z,17.96
2014-08-27T03:29:48.073Z,18.1
2014-08-27T03:30:53.044Z,18.03
2014-08-27T03:31:57.735Z,18.09
2014-08-27T03:33:02.424Z,17.98
2014-08-27T03:34:07.098Z,18.05
2014-08-27T03:35:11.413Z,18.02
2014-08-27T03:36:16.086Z,17.92
2014-08-27T03:37:20.776Z,17.99
2014-08-27T03:38:25.747Z,17.92
2014-08-27T03:39:30.436Z,18.04
2014-08-27T03:40:35.110Z,18.02
2014-08-27T03:41:40.096Z,17.97
2014-08-27T03:42:44.770Z,18.02
2014-08-27T03:43:49.460Z,18.12
2014-08-27T03:44:54.431Z,18.08
2014-08-27T03:45:59.121Z,18.05
2014-08-27T03:47:03.811Z,18.12
2014-08-27T03:48:08.483Z,18.14
2014-08-27T03:49:13.470Z,18.06
2014-08-27T03:50:18.145Z,18.1
2014-08-27T03:51:22.834Z,18.09
2014-08-27T03:52:27.508Z,17.96
2014-08-27T03:53:32.494Z,18
2014-08-27T03:54:37.168Z,18.05
2014-08-27T03:55:41.858Z,18.06
2014-08-27T03:56:46.158Z,18.12
2014-08-27T03:57:50.831Z,18.01
2014-08-27T03:58:55.818Z,17.99
2014-08-27T04:00:00.492Z,18.01
2014-08-27T04:01:05.180Z,17.92
2014-08-27T04:02:10.152Z,17.96
2014-08-27T04:03:14.841Z,17.96
2014-08-27T04:04:19.530Z,17.95
2014-08-27T04:05:24.205Z,17.94
2014-08-27T04:06:28.894Z,17.95
2014-08-27T04:07:33.568Z,17.96
2014-08-27T04:08:38.258Z,18.04
2014-08-27T04:09:43.229Z,17.95
2014-08-27T04:10:47.918Z,17.99
2014-08-27T04:11:52.592Z,18.04
2014-08-27T04:12:57.281Z,17.92
2014-08-27T04:14:01.955Z,17.84
2014-08-27T04:15:06.646Z,17.88
2014-08-27T04:16:11.334Z,18.02
2014-08-27T04:17:16.008Z,18.04
2014-08-27T04:18:20.699Z,18.01
2014-08-27T04:19:25.373Z,18.14
2014-08-27T04:20:30.062Z,18.03
2014-08-27T04:21:34.736Z,18
2014-08-27T04:22:39.722Z,18.03
2014-08-27T04:23:44.411Z,17.95
2014-08-27T04:24:49.086Z,17.88
2014-08-27T04:25:53.775Z,17.94
2014-08-27T04:26:58.466Z,17.81
2014-08-27T04:28:03.139Z,18
2014-08-27T04:29:07.829Z,17.98
2014-08-27T04:30:12.518Z,18.02
2014-08-27T04:31:17.207Z,17.98
2014-08-27T04:32:21.882Z,17.85
2014-08-27T04:33:26.570Z,18
2014-08-27T04:34:31.541Z,17.85
2014-08-27T04:35:36.232Z,17.83
2014-08-27T04:36:41.202Z,17.83
2014-08-27T04:37:45.908Z,17.94
2014-08-27T04:38:50.878Z,17.9
2014-08-27T04:39:55.568Z,17.98
2014-08-27T04:41:00.539Z,17.85
2014-08-27T04:42:05.228Z,17.98
2014-08-27T04:43:09.903Z,17.96
2014-08-27T04:44:14.591Z,17.96
2014-08-27T04:45:19.265Z,17.9
2014-08-27T04:46:23.956Z,18.02
2014-08-27T04:47:28.630Z,18.02
2014-08-27T04:48:33.318Z,17.95
2014-08-27T04:49:38.306Z,17.84
2014-08-27T04:50:42.979Z,17.9
2014-08-27T04:51:47.669Z,17.88
2014-08-27T04:52:52.640Z,17.88
2014-08-27T04:53:57.328Z,17.77
2014-08-27T04:55:02.034Z,17.92
2014-08-27T04:56:06.724Z,18.04
2014-08-27T04:57:11.398Z,17.87
2014-08-27T04:58:16.087Z,17.82
2014-08-27T04:59:20.778Z,17.68
2014-08-27T05:00:25.747Z,17.8
2014-08-27T05:01:30.438Z,17.79
2014-08-27T05:02:35.112Z,17.78
2014-08-27T05:03:39.800Z,17.87
2014-08-27T05:04:44.474Z,17.71
2014-08-27T05:05:49.165Z,17.63
2014-08-27T05:06:53.839Z,17.79
2014-08-27T05:07:58.528Z,17.92
2014-08-27T05:09:03.202Z,18
2014-08-27T05:10:07.891Z,18.04
2014-08-27T05:11:12.565Z,18.15
2014-08-27T05:12:17.255Z,18.18
2014-08-27T05:13:21.929Z,18.09
2014-08-27T05:14:26.618Z,18.09
2014-08-27T05:15:31.293Z,18.06
2014-08-27T05:16:35.983Z,17.94
2014-08-27T05:17:40.655Z,18.03
2014-08-27T05:18:45.643Z,18.11
2014-08-27T05:19:50.332Z,18.15
2014-08-27T05:20:55.005Z,18.01
2014-08-27T05:21:59.993Z,17.83
2014-08-27T05:23:04.666Z,17.98
2014-08-27T05:24:09.372Z,18.06
2014-08-27T05:25:14.061Z,18.16
2014-08-27T05:26:18.735Z,18
2014-08-27T05:27:23.409Z,17.89
2014-08-27T05:28:28.098Z,17.95
2014-08-27T05:29:32.788Z,18.02
2014-08-27T05:30:37.462Z,18.12
2014-08-27T05:31:42.151Z,17.95
2014-08-27T05:32:46.138Z,18.14
2014-08-27T05:33:50.828Z,18.03
2014-08-27T05:34:55.518Z,17.94
2014-08-27T05:36:00.190Z,18
2014-08-27T05:37:05.178Z,17.95
2014-08-27T05:38:09.867Z,18.09
2014-08-27T05:39:14.540Z,18.18
2014-08-27T05:40:19.231Z,18.14
2014-08-27T05:41:23.905Z,18.03
2014-08-27T05:42:28.594Z,18.04
2014-08-27T05:43:33.268Z,18.13
2014-08-27T05:44:38.254Z,18.18
2014-08-27T05:45:42.928Z,18.31
2014-08-27T05:46:47.618Z,18.2
2014-08-27T05:47:52.292Z,18.24
2014-08-27T05:48:56.982Z,18.26
2014-08-27T05:50:01.656Z,18.23
2014-08-27T05:51:06.345Z,18.27
2014-08-27T05:52:11.018Z,18.33
2014-08-27T05:53:15.709Z,18.24
2014-08-27T05:54:20.383Z,18.24
2014-08-27T05:55:25.071Z,18.34
2014-08-27T05:56:29.762Z,18.3
2014-08-27T05:57:34.451Z,18.17
2014-08-27T05:58:39.126Z,18.32
2014-08-27T05:59:44.111Z,18.37
2014-08-27T06:00:48.785Z,18.38
2014-08-27T06:01:53.476Z,18.34
2014-08-27T06:02:58.164Z,18.45
2014-08-27T06:04:02.838Z,18.33
2014-08-27T06:05:07.826Z,18.3
2014-08-27T06:06:12.498Z,18.26
2014-08-27T06:07:17.189Z,18.42
2014-08-27T06:08:21.863Z,18.26
2014-08-27T06:09:26.552Z,18.24
2014-08-27T06:10:31.241Z,18.16
2014-08-27T06:11:35.931Z,18.16
2014-08-27T06:12:40.605Z,18.2
2014-08-27T06:13:45.296Z,18.22
2014-08-27T06:14:49.969Z,18.2
2014-08-27T06:15:54.658Z,18.19
2014-08-27T06:16:59.333Z,18.25
2014-08-27T06:18:04.021Z,18.17
2014-08-27T06:19:08.695Z,18.22
2014-08-27T06:20:13.400Z,18.25
2014-08-27T06:21:18.371Z,18.16
2014-08-27T06:22:23.062Z,18.06
2014-08-27T06:23:27.751Z,18.18
2014-08-27T06:24:32.425Z,18.02
2014-08-27T06:25:37.115Z,18.18
2014-08-27T06:26:42.101Z,18.19
2014-08-27T06:27:46.775Z,18.36
2014-08-27T06:28:51.464Z,18.39
2014-08-27T06:29:56.154Z,18.27
2014-08-27T06:31:01.125Z,18.35
2014-08-27T06:32:05.815Z,18.38
2014-08-27T06:33:10.504Z,18.68
2014-08-27T06:34:15.177Z,18.72
2014-08-27T06:35:19.868Z,18.67
2014-08-27T06:36:24.557Z,18.64
2014-08-27T06:37:29.527Z,18.65
2014-08-27T06:38:34.218Z,18.63
2014-08-27T06:39:39.204Z,18.62
2014-08-27T06:40:43.878Z,18.7
2014-08-27T06:41:48.567Z,18.8
2014-08-27T06:42:53.257Z,18.76
2014-08-27T06:43:58.228Z,18.78
2014-08-27T06:45:02.917Z,18.84
2014-08-27T06:46:07.592Z,18.64
2014-08-27T06:47:12.281Z,18.8
2014-08-27T06:48:16.971Z,18.76
2014-08-27T06:49:21.645Z,18.75
2014-08-27T06:50:26.333Z,18.8
2014-08-27T06:51:31.321Z,18.51
2014-08-27T06:52:35.995Z,18.53
2014-08-27T06:53:40.683Z,18.64
2014-08-27T06:54:45.358Z,18.62
2014-08-27T06:55:50.063Z,18.58
2014-08-27T06:56:54.737Z,18.55
2014-08-27T06:57:59.427Z,18.48
2014-08-27T06:59:04.116Z,18.46
2014-08-27T07:00:09.087Z,18.43
2014-08-27T07:01:13.776Z,18.56
2014-08-27T07:02:18.467Z,18.45
2014-08-27T07:03:23.140Z,18.38
2014-08-27T07:04:27.829Z,18.28
2014-08-27T07:05:32.520Z,18.1
2014-08-27T07:06:37.209Z,18.22
2014-08-27T07:07:42.180Z,18.01
2014-08-27T07:08:46.903Z,18.02
2014-08-27T07:09:51.637Z,18.02
2014-08-27T07:10:56.369Z,17.82
2014-08-27T07:12:01.383Z,18.04
2014-08-27T07:13:06.410Z,17.97
2014-08-27T07:14:11.131Z,17.78
2014-08-27T07:15:15.821Z,17.52
2014-08-27T07:16:20.823Z,17.87
2014-08-27T07:17:25.824Z,17.97
2014-08-27T07:18:30.525Z,17.92
2014-08-27T07:19:35.516Z,18.14
2014-08-27T07:20:40.196Z,18.22
2014-08-27T07:21:44.891Z,18.49
2014-08-27T07:22:49.883Z,18.73
2014-08-27T07:23:54.871Z,18.86
2014-08-27T07:24:59.547Z,18.78
2014-08-27T07:26:04.240Z,18.71
2014-08-27T07:27:08.930Z,18.93
2014-08-27T07:28:13.920Z,19.12
2014-08-27T07:29:18.890Z,19.12
2014-08-27T07:30:23.878Z,19.17
2014-08-27T07:31:28.568Z,18.94
2014-08-27T07:32:33.260Z,19.26
2014-08-27T07:33:37.934Z,19.3
2014-08-27T07:34:42.624Z,19.27
2014-08-27T07:35:47.314Z,18.86
2014-08-27T07:36:52.003Z,18.92
2014-08-27T07:37:56.678Z,18.9
2014-08-27T07:39:01.367Z,18.21
2014-08-27T07:40:06.354Z,18.51
2014-08-27T07:41:11.043Z,18.63
2014-08-27T07:42:16.014Z,18.7
2014-08-27T07:43:20.704Z,18.79
2014-08-27T07:44:25.690Z,18.61
2014-08-27T07:45:30.364Z,18.77
2014-08-27T07:46:35.350Z,18.68
2014-08-27T07:47:40.040Z,18.78
2014-08-27T07:48:44.729Z,18.7
2014-08-27T07:49:49.404Z,18.61
2014-08-27T07:50:54.093Z,18.52
2014-08-27T07:51:58.783Z,18.62
2014-08-27T07:53:03.768Z,18.86
2014-08-27T07:54:08.756Z,18.86
2014-08-27T07:55:13.430Z,18.68
2014-08-27T07:56:18.135Z,18.82
2014-08-27T07:57:22.824Z,18.9
2014-08-27T07:58:27.514Z,18.9
2014-08-27T07:59:32.188Z,18.92
2014-08-27T08:00:36.877Z,18.94
2014-08-27T08:01:41.864Z,19.05
2014-08-27T08:02:46.553Z,18.98
2014-08-27T08:03:51.228Z,18.81
2014-08-27T08:04:55.932Z,18.94
2014-08-27T08:06:00.622Z,18.84
2014-08-27T08:07:05.312Z,18.61
2014-08-27T08:08:10.002Z,18.77
2014-08-27T08:09:14.691Z,18.84
2014-08-27T08:10:19.365Z,19.06
2014-08-27T08:11:24.054Z,18.92
2014-08-27T08:12:29.041Z,19.03
2014-08-27T08:13:33.043Z,19.1
2014-08-27T08:14:38.029Z,19.02
2014-08-27T08:15:42.719Z,19
2014-08-27T08:16:47.408Z,18.98
2014-08-27T08:17:52.396Z,18.95
2014-08-27T08:18:57.084Z,18.91
2014-08-27T08:20:01.759Z,19.14
2014-08-27T08:21:06.464Z,19.13
2014-08-27T08:22:11.168Z,19.18
2014-08-27T08:23:15.843Z,19.3
2014-08-27T08:24:20.548Z,19.39
2014-08-27T08:25:25.238Z,19.37
2014-08-27T08:26:29.912Z,19.38
2014-08-27T08:27:34.601Z,19.37
2014-08-27T08:28:39.291Z,19.12
2014-08-27T08:29:44.277Z,18.94
2014-08-27T08:30:48.951Z,19.16
2014-08-27T08:31:53.640Z,19.27
2014-08-27T08:32:58.345Z,19.32
2014-08-27T08:34:03.036Z,19.31
2014-08-27T08:35:07.724Z,19.08
2014-08-27T08:36:12.415Z,19
2014-08-27T08:37:17.166Z,18.97
2014-08-27T08:38:21.841Z,18.92
2014-08-27T08:39:26.826Z,19.04
2014-08-27T08:40:31.814Z,18.78
2014-08-27T08:41:36.503Z,19.03
2014-08-27T08:42:41.193Z,19.06
2014-08-27T08:43:45.866Z,19
2014-08-27T08:44:50.556Z,18.84
2014-08-27T08:45:55.245Z,18.86
2014-08-27T08:47:00.232Z,18.68
2014-08-27T08:48:04.906Z,18.86
2014-08-27T08:49:09.659Z,18.93
2014-08-27T08:50:14.628Z,19.26
2014-08-27T08:51:19.616Z,19.54
2014-08-27T08:52:24.601Z,19.48
2014-08-27T08:53:29.292Z,19.88
2014-08-27T08:54:33.966Z,20
2014-08-27T08:55:38.952Z,19.72
2014-08-27T08:56:42.954Z,19.64
2014-08-27T08:57:47.925Z,19.47
2014-08-27T08:58:52.614Z,19.34
2014-08-27T08:59:57.304Z,19.48
2014-08-27T09:01:01.993Z,19.58
2014-08-27T09:02:06.668Z,19.51
2014-08-27T09:03:11.357Z,19.19
2014-08-27T09:04:16.046Z,19.02
2014-08-27T09:05:20.721Z,19.18
2014-08-27T09:06:25.409Z,19.25
2014-08-27T09:07:30.380Z,19.08
2014-08-27T09:08:35.071Z,19.12
2014-08-27T09:09:40.057Z,19.3
2014-08-27T09:10:44.731Z,19.3
2014-08-27T09:11:49.420Z,19.28
2014-08-27T09:12:54.094Z,19.5
2014-08-27T09:13:58.784Z,19.44
2014-08-27T09:15:03.473Z,19.38
2014-08-27T09:16:08.163Z,19.61
2014-08-27T09:17:12.837Z,19.57
2014-08-27T09:18:17.526Z,19.63
2014-08-27T09:19:22.217Z,19.63
2014-08-27T09:20:27.186Z,19.75
2014-08-27T09:21:31.877Z,19.68
2014-08-27T09:22:36.565Z,19.76
2014-08-27T09:23:41.239Z,19.67
2014-08-27T09:24:46.227Z,19.63
2014-08-27T09:25:50.915Z,19.68
2014-08-27T09:26:55.606Z,19.9
2014-08-27T09:27:59.592Z,20
2014-08-27T09:29:04.282Z,19.6
2014-08-27T09:30:08.955Z,19.66
2014-08-27T09:31:13.645Z,19.82
2014-08-27T09:32:18.616Z,19.55
2014-08-27T09:33:23.305Z,20.02
2014-08-27T09:34:28.292Z,19.96
2014-08-27T09:35:32.965Z,19.87
2014-08-27T09:36:37.656Z,19.89
2014-08-27T09:37:42.345Z,19.64
2014-08-27T09:38:47.315Z,19.83
2014-08-27T09:39:52.006Z,19.98
2014-08-27T09:40:56.992Z,19.88
2014-08-27T09:42:01.666Z,20.08
2014-08-27T09:43:06.355Z,20.15
2014-08-27T09:44:11.045Z,20.05
2014-08-27T09:45:15.719Z,20.19
2014-08-27T09:46:20.408Z,20.22
2014-08-27T09:47:25.082Z,20.23
2014-08-27T09:48:29.772Z,19.97
2014-08-27T09:49:34.461Z,19.64
2014-08-27T09:50:39.449Z,19.64
2014-08-27T09:51:44.121Z,19.8
2014-08-27T09:52:49.109Z,19.65
2014-08-27T09:55:07.940Z,19.67
2014-08-27T09:56:12.615Z,19.48
2014-08-27T09:57:17.601Z,19.68
2014-08-27T09:58:22.291Z,19.78
2014-08-27T09:59:26.965Z,19.73
2014-08-27T10:00:31.654Z,19.78
2014-08-27T10:01:36.329Z,19.87
2014-08-27T10:02:41.314Z,19.62
2014-08-27T10:03:46.286Z,19.48
2014-08-27T10:04:50.976Z,19.69
2014-08-27T10:05:54.978Z,19.68
2014-08-27T10:06:59.947Z,19.59
2014-08-27T10:08:04.638Z,19.81
2014-08-27T10:09:09.312Z,19.79
2014-08-27T10:10:14.298Z,19.82
2014-08-27T10:11:18.972Z,19.78
2014-08-27T10:12:23.661Z,19.96
2014-08-27T10:13:28.648Z,19.82
2014-08-27T10:14:33.322Z,19.8
2014-08-27T10:15:38.011Z,19.54
2014-08-27T10:16:42.702Z,19.66
2014-08-27T10:17:47.375Z,19.61
2014-08-27T10:18:52.065Z,19.42
2014-08-27T10:19:56.739Z,19.54
2014-08-27T10:21:01.724Z,19.41
2014-08-27T10:22:06.415Z,19.13
2014-08-27T10:23:11.089Z,19.05
2014-08-27T10:24:16.075Z,19.09
2014-08-27T10:25:20.749Z,18.98
2014-08-27T10:26:25.438Z,18.99
2014-08-27T10:27:30.128Z,19.06
2014-08-27T10:28:34.802Z,19.09
2014-08-27T10:29:39.491Z,19.18
2014-08-27T10:30:44.165Z,19.46
2014-08-27T10:31:48.856Z,19.37
2014-08-27T10:32:53.544Z,19.4
2014-08-27T10:33:58.235Z,19.48
2014-08-27T10:35:03.204Z,19.41
2014-08-27T10:36:07.895Z,19.43
2014-08-27T10:37:12.584Z,19.78
2014-08-27T10:38:17.258Z,19.82
2014-08-27T10:39:22.245Z,19.9
2014-08-27T10:40:26.934Z,20.09
2014-08-27T10:41:31.609Z,19.89
2014-08-27T10:42:36.298Z,19.87
2014-08-27T10:43:40.971Z,19.92
2014-08-27T10:44:45.959Z,19.9
2014-08-27T10:45:50.944Z,19.92
2014-08-27T10:46:55.619Z,20.03
2014-08-27T10:48:00.323Z,20.1
2014-08-27T10:49:05.295Z,20.31
2014-08-27T10:50:09.984Z,20.46
2014-08-27T10:51:14.657Z,20.45
2014-08-27T10:52:19.348Z,20.41
2014-08-27T10:53:24.037Z,20.4
2014-08-27T10:54:29.008Z,20.74
2014-08-27T10:55:33.698Z,20.78
2014-08-27T10:56:38.668Z,20.65
2014-08-27T10:57:43.358Z,20.68
2014-08-27T10:58:48.344Z,20.69
2014-08-27T10:59:53.035Z,20.62
2014-08-27T11:00:57.708Z,20.42
2014-08-27T11:02:02.695Z,20.44
2014-08-27T11:03:07.572Z,20.14
2014-08-27T11:04:12.260Z,20.04
2014-08-27T11:05:16.951Z,20.07
2014-08-27T11:06:21.640Z,20.08
2014-08-27T11:07:26.314Z,20.16
2014-08-27T11:08:31.004Z,20.15
2014-08-27T11:09:35.693Z,20.34
2014-08-27T11:10:40.665Z,20.35
2014-08-27T11:11:45.354Z,20.39
2014-08-27T11:12:50.043Z,20.3
2014-08-27T11:13:54.718Z,20.17
2014-08-27T11:14:59.406Z,19.91
2014-08-27T11:16:04.080Z,20.07
2014-08-27T11:17:08.771Z,19.9
2014-08-27T11:18:13.460Z,19.9
2014-08-27T11:19:18.133Z,19.7
2014-08-27T11:20:22.824Z,19.71
2014-08-27T11:21:27.498Z,19.6
2014-08-27T11:22:32.484Z,19.7
2014-08-27T11:23:37.470Z,19.63
2014-08-27T11:24:42.160Z,19.48
2014-08-27T11:25:46.834Z,19.72
2014-08-27T11:26:51.821Z,19.71
2014-08-27T11:27:56.510Z,19.75
2014-08-27T11:29:01.183Z,19.92
2014-08-27T11:30:05.874Z,20.17
2014-08-27T11:31:10.562Z,20
2014-08-27T11:32:15.533Z,19.82
2014-08-27T11:33:20.238Z,19.98
2014-08-27T11:34:24.912Z,20.19
2014-08-27T11:35:29.603Z,20.24
2014-08-27T11:36:34.291Z,20.14
2014-08-27T11:37:38.966Z,20.14
2014-08-27T11:38:43.656Z,20.25
2014-08-27T11:39:48.345Z,20.29
2014-08-27T11:40:53.019Z,20.19
2014-08-27T11:41:57.708Z,20.4
2014-08-27T11:43:02.415Z,20.49
2014-08-27T11:44:07.087Z,20.41
2014-08-27T11:45:11.778Z,20.27
2014-08-27T11:46:16.452Z,20.29
2014-08-27T11:47:21.140Z,20.24
2014-08-27T11:48:26.128Z,20.18
2014-08-27T11:49:30.802Z,20.38
2014-08-27T11:50:35.491Z,20.45
2014-08-27T11:51:40.181Z,20.5
2014-08-27T11:52:45.183Z,20.48
2014-08-27T11:53:49.856Z,20.68
2014-08-27T11:54:54.546Z,20.78
2014-08-27T11:55:59.220Z,20.84
2014-08-27T11:57:03.909Z,20.92
2014-08-27T11:58:08.599Z,20.99
2014-08-27T11:59:13.570Z,20.83
2014-08-27T12:00:18.260Z,20.92
2014-08-27T12:01:22.934Z,20.9
2014-08-27T12:02:27.622Z,20.91
2014-08-27T12:03:32.296Z,20.94
2014-08-27T12:04:36.987Z,20.88
2014-08-27T12:05:41.676Z,21.06
2014-08-27T12:06:46.647Z,21.01
2014-08-27T12:07:51.337Z,20.91
2014-08-27T12:08:56.026Z,20.91
2014-08-27T12:10:00.700Z,20.9
2014-08-27T12:11:05.389Z,20.99
2014-08-27T12:12:10.079Z,20.95
2014-08-27T12:13:15.065Z,21.04
2014-08-27T12:14:20.037Z,21.18
2014-08-27T12:15:24.726Z,21.09
2014-08-27T12:16:29.431Z,21.19
2014-08-27T12:17:33.731Z,21.49
2014-08-27T12:18:38.403Z,21.15
2014-08-27T12:19:43.094Z,21.06
2014-08-27T12:20:47.783Z,21.18
2014-08-27T12:21:52.472Z,21.04
2014-08-27T12:22:57.147Z,21.07
2014-08-27T12:24:02.132Z,21.14
2014-08-27T12:25:06.823Z,21.18
2014-08-27T12:26:11.528Z,21.38
2014-08-27T12:27:16.202Z,21.33
2014-08-27T12:28:20.891Z,21.13
2014-08-27T12:29:25.581Z,21.31
2014-08-27T12:30:30.270Z,21.64
2014-08-27T12:31:34.961Z,21.8
2014-08-27T12:32:39.634Z,21.93
2014-08-27T12:33:44.324Z,21.73
2014-08-27T12:34:48.326Z,21.53
2014-08-27T12:35:53.000Z,21.73
2014-08-27T12:36:57.689Z,21.62
2014-08-27T12:38:02.362Z,21.4
2014-08-27T12:39:07.053Z,21.33
2014-08-27T12:40:11.742Z,21.5
2014-08-27T12:41:16.416Z,21.32
2014-08-27T12:42:21.106Z,21.44
2014-08-27T12:43:25.795Z,21.26
2014-08-27T12:44:30.486Z,21.46
2014-08-27T12:45:35.159Z,21.61
2014-08-27T12:46:39.849Z,21.49
2014-08-27T12:47:44.834Z,21.46
2014-08-27T12:48:49.524Z,21.6
2014-08-27T12:49:54.496Z,21.48
2014-08-27T12:50:59.482Z,21.42
2014-08-27T12:52:04.468Z,21.33
2014-08-27T12:53:09.454Z,21.21
2014-08-27T12:54:14.129Z,21.3
2014-08-27T12:55:18.818Z,21.28
2014-08-27T12:56:23.508Z,21.47
2014-08-27T12:57:28.197Z,21.58
2014-08-27T12:58:32.872Z,21.5
2014-08-27T12:59:37.857Z,21.42
2014-08-27T13:00:42.548Z,21.44
2014-08-27T13:01:47.236Z,21.32
2014-08-27T13:02:51.927Z,21.26
2014-08-27T13:03:56.615Z,21.29
2014-08-27T13:05:01.305Z,21.42
2014-08-27T13:06:05.307Z,21.41
2014-08-27T13:07:09.982Z,21.52
2014-08-27T13:08:14.670Z,21.48
2014-08-27T13:09:19.658Z,20.98
2014-08-27T13:10:24.347Z,21.2
2014-08-27T13:11:29.037Z,21.3
2014-08-27T13:12:33.726Z,21.32
2014-08-27T13:13:38.401Z,21.42
2014-08-27T13:14:43.090Z,21.52
2014-08-27T13:15:47.780Z,21.76
2014-08-27T13:16:52.765Z,21.85
2014-08-27T13:17:57.456Z,21.86
2014-08-27T13:19:02.145Z,21.8
2014-08-27T13:20:07.115Z,21.95
2014-08-27T13:21:11.806Z,21.88
2014-08-27T13:22:16.792Z,22.08
2014-08-27T13:23:21.482Z,22.29
2014-08-27T13:24:26.171Z,22.3
2014-08-27T13:25:30.861Z,22.12
2014-08-27T13:26:35.550Z,22.03
2014-08-27T13:27:40.240Z,21.75
2014-08-27T13:28:44.960Z,21.52
2014-08-27T13:29:49.634Z,21.59
2014-08-27T13:30:54.324Z,21.69
2014-08-27T13:31:59.013Z,22.04
2014-08-27T13:33:04.000Z,22.37
2014-08-27T13:34:08.690Z,22.25
2014-08-27T13:35:13.380Z,22.39
2014-08-27T13:36:18.068Z,22.47
2014-08-27T13:37:22.743Z,22.4
2014-08-27T13:38:27.432Z,22.34
2014-08-27T13:39:32.419Z,22.22
2014-08-27T13:40:37.108Z,21.97
2014-08-27T13:41:42.095Z,22.04
2014-08-27T13:42:46.784Z,21.9
2014-08-27T13:43:51.474Z,21.99
2014-08-27T13:44:56.179Z,22.17
2014-08-27T13:46:00.853Z,22.2
2014-08-27T13:47:05.542Z,22.18
2014-08-27T13:48:10.529Z,22.4
2014-08-27T13:49:15.219Z,22.51
2014-08-27T13:50:20.204Z,22.65
2014-08-27T13:51:24.911Z,22.48
2014-08-27T13:52:29.896Z,22.59
2014-08-27T13:53:34.586Z,22.53
2014-08-27T13:54:39.260Z,22.64
2014-08-27T13:55:44.247Z,22.89
2014-08-27T13:56:49.233Z,22.95
2014-08-27T13:57:53.923Z,22.79
2014-08-27T13:58:58.629Z,22.9
2014-08-27T14:00:03.317Z,22.83